Time;durP1;ratioP1;P1;durP2;ratioP2;P2;SDS_P1;SDS_P2;PMS_P1;PMS_P2;Temp;Humidity;BMP_temperature;BMP_pressure;BME280_temperature;BME280_humidity;BME280_pressure;Samples;Min_cycle;Max_cycle;Signal;HPM_P1;HPM_P2
2022/03/09 00:00:35;;;;;;;;;22.00;20.00;;;;;21.61;39.10;101634.98;110348;1262;18699;-48
2022/03/09 00:03:06;;;;;;;;;24.67;23.00;;;;;21.61;39.23;101638.05;110351;1262;18576;-48
2022/03/09 00:05:33;;;;;;;;;26.00;25.00;;;;;21.60;39.30;101637.23;110424;1261;18722;-49
2022/03/09 00:08:01;;;;;;;;;28.50;22.50;;;;;21.61;39.40;101636.83;110345;1262;19045;-48
2022/03/09 00:10:28;;;;;;;;;24.67;21.67;;;;;21.62;39.42;101629.45;110383;1262;18264;-47
2022/03/09 00:12:55;;;;;;;;;22.00;20.00;;;;;21.62;39.13;101624.52;110353;1261;18567;-49
2022/03/09 00:15:23;;;;;;;;;32.00;28.00;;;;;21.60;39.22;101622.13;110344;1262;18845;-46
2022/03/09 00:17:50;;;;;;;;;21.50;19.00;;;;;21.62;39.29;101624.20;110326;1261;18283;-49
2022/03/09 00:20:17;;;;;;;;;26.67;23.67;;;;;21.61;39.29;101620.66;110337;1262;19706;-51
2022/03/09 00:22:44;;;;;;;;;21.67;21.00;;;;;21.60;39.30;101613.26;110375;1262;20423;-47
2022/03/09 00:25:12;;;;;;;;;27.33;22.67;;;;;21.61;39.14;101611.21;110356;1262;18510;-49
2022/03/09 00:27:39;;;;;;;;;25.33;23.67;;;;;21.61;39.22;101602.99;110375;1262;18665;-50
2022/03/09 00:30:06;;;;;;;;;27.00;21.00;;;;;21.60;39.14;101603.23;110416;1261;18772;-48
2022/03/09 00:32:33;;;;;;;;;24.67;20.67;;;;;21.61;39.17;101598.66;110354;1261;18218;-49
2022/03/09 00:35:01;;;;;;;;;27.33;23.67;;;;;21.60;39.05;101597.60;110355;1262;19099;-48
2022/03/09 00:37:28;;;;;;;;;21.00;20.67;;;;;21.59;39.02;101592.26;110386;1262;20164;-48
2022/03/09 00:39:55;;;;;;;;;26.67;21.33;;;;;21.58;39.14;101589.09;110364;1262;18197;-46
2022/03/09 00:42:22;;;;;;;;;22.00;20.00;;;;;21.58;39.12;101589.61;110342;1262;21547;-49
2022/03/09 00:44:49;;;;;;;;;21.00;20.00;;;;;21.58;39.06;101590.94;110422;1262;18641;-48
2022/03/09 00:47:17;;;;;;;;;30.00;25.00;;;;;21.57;39.14;101593.52;110326;1262;18182;-49
2022/03/09 00:49:44;;;;;;;;;26.33;21.33;;;;;21.57;39.10;101594.82;110373;1262;22195;-47
2022/03/09 00:52:11;;;;;;;;;26.00;25.00;;;;;21.57;39.07;101600.82;110376;1262;18723;-50
2022/03/09 00:54:38;;;;;;;;;27.00;25.00;;;;;21.57;39.21;101600.64;110320;1262;19923;-48
2022/03/09 00:57:05;;;;;;;;;27.67;22.67;;;;;21.58;39.16;101603.48;110348;1261;23740;-48
2022/03/09 00:59:33;;;;;;;;;18.00;17.33;;;;;21.58;39.08;101605.33;110373;1262;18667;-49
2022/03/09 01:02:00;;;;;;;;;27.33;25.00;;;;;21.57;39.16;101607.37;110377;1262;19478;-50
2022/03/09 01:04:27;;;;;;;;;26.67;24.00;;;;;21.57;39.08;101607.55;110391;1261;19527;-49
2022/03/09 01:06:54;;;;;;;;;26.67;24.00;;;;;21.58;39.09;101605.70;110348;1262;18665;-48
2022/03/09 01:09:22;;;;;;;;;25.00;22.00;;;;;21.58;39.13;101606.73;110392;1262;20896;-49
2022/03/09 01:11:49;;;;;;;;;28.00;22.50;;;;;21.58;39.03;101610.70;110374;1262;18733;-48
2022/03/09 01:14:16;;;;;;;;;27.67;24.00;;;;;21.59;39.04;101613.94;110217;1264;18691;-49
2022/03/09 01:16:43;;;;;;;;;24.50;21.00;;;;;21.58;39.04;101611.67;110387;1261;18535;-51
2022/03/09 01:19:10;;;;;;;;;23.67;21.67;;;;;21.58;39.17;101614.54;109940;1262;512521;-53
2022/03/09 01:21:38;;;;;;;;;27.00;21.00;;;;;21.58;38.91;101615.09;110258;1262;19324;-48
2022/03/09 01:24:06;;;;;;;;;22.67;21.00;;;;;21.57;39.02;101614.25;110134;1261;21397;-48
2022/03/09 01:26:33;;;;;;;;;25.00;24.33;;;;;21.57;39.15;101613.23;110199;1262;21971;-50
2022/03/09 01:29:01;;;;;;;;;25.67;25.00;;;;;21.57;38.87;101613.95;110303;1262;21333;-49
2022/03/09 01:31:28;;;;;;;;;22.33;20.33;;;;;21.57;38.96;101610.50;110394;1262;18253;-51
2022/03/09 01:33:55;;;;;;;;;25.50;24.00;;;;;21.57;39.01;101609.73;110355;1261;20500;-48
2022/03/09 01:36:22;;;;;;;;;31.67;25.00;;;;;21.57;38.90;101603.95;110381;1262;18648;-46
2022/03/09 01:38:49;;;;;;;;;25.00;24.00;;;;;21.57;38.90;101608.63;110364;1261;18196;-48
2022/03/09 01:41:17;;;;;;;;;22.00;20.50;;;;;21.56;38.97;101605.68;110358;1261;18793;-50
2022/03/09 01:43:44;;;;;;;;;25.50;23.00;;;;;21.56;38.95;101610.94;110354;1262;18886;-47
2022/03/09 01:46:11;;;;;;;;;28.00;23.50;;;;;21.56;38.98;101608.00;110353;1262;18298;-49
2022/03/09 01:48:39;;;;;;;;;24.50;21.00;;;;;21.56;39.15;101609.84;110166;1265;20025;-50
2022/03/09 01:51:06;;;;;;;;;21.00;20.00;;;;;21.54;39.16;101602.41;110333;1262;18666;-49
2022/03/09 01:53:33;;;;;;;;;27.00;23.67;;;;;21.54;38.98;101600.64;110363;1262;18480;-49
2022/03/09 01:56:00;;;;;;;;;23.00;19.33;;;;;21.53;39.04;101603.60;110358;1262;22033;-47
2022/03/09 01:58:27;;;;;;;;;28.00;21.00;;;;;21.54;38.92;101604.33;110396;1262;18825;-48
2022/03/09 02:00:55;;;;;;;;;22.67;21.33;;;;;21.54;39.21;101605.59;110371;1262;18362;-50
2022/03/09 02:03:22;;;;;;;;;27.67;22.00;;;;;21.53;39.16;101600.73;110350;1261;26149;-48
2022/03/09 02:05:49;;;;;;;;;20.50;20.00;;;;;21.52;39.13;101601.89;110360;1262;18730;-50
2022/03/09 02:11:02;;;;;;;;;25.67;20.33;;;;;21.52;39.11;101609.88;110414;1262;19300;-47
2022/03/09 02:13:29;;;;;;;;;23.33;19.00;;;;;21.52;38.95;101608.64;110418;1262;21915;-49
2022/03/09 02:15:56;;;;;;;;;27.00;21.33;;;;;21.52;39.05;101606.29;110377;1262;20582;-48
2022/03/09 02:18:23;;;;;;;;;24.50;20.50;;;;;21.53;38.86;101607.83;110379;1262;18755;-49
2022/03/09 02:20:50;;;;;;;;;24.67;19.33;;;;;21.54;38.90;101606.98;110358;1262;21580;-49
2022/03/09 02:23:18;;;;;;;;;21.67;20.67;;;;;21.53;39.03;101602.92;110333;1262;23266;-49
2022/03/09 02:25:45;;;;;;;;;23.33;20.67;;;;;21.53;39.00;101607.05;110385;1262;18672;-48
2022/03/09 02:28:12;;;;;;;;;19.00;18.00;;;;;21.53;39.04;101601.83;110372;1262;18723;-47
2022/03/09 02:30:39;;;;;;;;;21.33;20.00;;;;;21.52;38.84;101598.64;110376;1262;18170;-48
2022/03/09 02:33:07;;;;;;;;;23.00;21.00;;;;;21.52;38.82;101601.95;110357;1262;20811;-46
2022/03/09 02:35:34;;;;;;;;;24.67;20.67;;;;;21.53;38.78;101603.10;110355;1262;23263;-48
2022/03/09 02:38:01;;;;;;;;;17.00;17.00;;;;;21.53;38.93;101598.39;110336;1262;18184;-49
2022/03/09 02:40:28;;;;;;;;;22.67;21.67;;;;;21.53;38.87;101598.35;110415;1261;18714;-47
2022/03/09 02:42:56;;;;;;;;;20.50;18.00;;;;;21.52;38.92;101596.30;110374;1262;18751;-54
2022/03/09 02:45:23;;;;;;;;;23.50;19.00;;;;;21.52;38.77;101600.11;110365;1262;24701;-47
2022/03/09 02:47:50;;;;;;;;;22.00;21.00;;;;;21.52;38.83;101597.78;110381;1262;23061;-47
2022/03/09 02:50:17;;;;;;;;;24.33;20.67;;;;;21.51;38.77;101598.70;110339;1262;18659;-48
2022/03/09 02:52:45;;;;;;;;;23.50;22.00;;;;;21.51;38.88;101602.04;110394;1262;18198;-49
2022/03/09 02:55:12;;;;;;;;;20.67;20.33;;;;;21.51;38.94;101606.96;110341;1262;18683;-49
2022/03/09 02:57:39;;;;;;;;;21.00;18.67;;;;;21.50;38.87;101606.84;110367;1262;18920;-49
2022/03/09 03:00:07;;;;;;;;;21.00;20.33;;;;;21.50;38.89;101607.25;110393;1262;20622;-48
2022/03/09 03:02:35;;;;;;;;;20.00;18.00;;;;;21.49;38.82;101609.47;110371;1262;19149;-49
2022/03/09 03:05:02;;;;;;;;;22.33;20.67;;;;;21.49;39.04;101611.65;110364;1262;19225;-49
2022/03/09 03:07:30;;;;;;;;;22.67;20.00;;;;;21.48;38.90;101607.05;110339;1262;21857;-47
2022/03/09 03:09:57;;;;;;;;;24.00;23.33;;;;;21.48;38.83;101606.88;110339;1261;22287;-49
2022/03/09 03:12:24;;;;;;;;;24.33;21.33;;;;;21.47;38.86;101609.15;110379;1261;18948;-48
2022/03/09 03:14:51;;;;;;;;;23.50;19.00;;;;;21.47;39.00;101610.45;110387;1261;21073;-50
2022/03/09 03:17:19;;;;;;;;;24.67;22.33;;;;;21.48;38.79;101615.33;110331;1261;18701;-50
2022/03/09 03:19:46;;;;;;;;;20.67;20.67;;;;;21.47;38.70;101611.71;110407;1262;18713;-48
2022/03/09 03:22:13;;;;;;;;;20.00;20.00;;;;;21.46;38.73;101613.43;110388;1262;21883;-48
2022/03/09 03:24:40;;;;;;;;;23.33;21.00;;;;;21.48;38.80;101612.77;110374;1262;18805;-49
2022/03/09 03:27:08;;;;;;;;;24.50;20.00;;;;;21.47;38.77;101609.56;110310;1262;18963;-50
2022/03/09 03:29:35;;;;;;;;;17.67;16.33;;;;;21.48;38.79;101610.59;110345;1262;21817;-51
2022/03/09 03:32:02;;;;;;;;;24.00;20.67;;;;;21.48;38.70;101621.05;110401;1262;18778;-48
2022/03/09 03:34:29;;;;;;;;;21.00;18.67;;;;;21.47;38.83;101616.59;110395;1262;18696;-50
2022/03/09 03:36:56;;;;;;;;;24.00;18.00;;;;;21.48;38.81;101621.13;110312;1261;22438;-52
2022/03/09 03:39:24;;;;;;;;;18.33;17.67;;;;;21.48;38.79;101614.38;110330;1262;18807;-49
2022/03/09 03:41:51;;;;;;;;;21.67;20.67;;;;;21.47;38.80;101612.09;110388;1262;19180;-48
2022/03/09 03:44:18;;;;;;;;;18.50;17.50;;;;;21.48;38.77;101613.66;110355;1262;18284;-48
2022/03/09 03:46:46;;;;;;;;;21.00;20.00;;;;;21.48;38.71;101610.17;110437;1262;21162;-49
2022/03/09 03:49:13;;;;;;;;;21.67;20.00;;;;;21.48;38.75;101609.84;110403;1261;18666;-50
2022/03/09 03:51:40;;;;;;;;;20.00;16.33;;;;;21.48;38.67;101611.96;110348;1261;21691;-48
2022/03/09 03:54:09;;;;;;;;;20.00;19.00;;;;;21.48;38.77;101613.62;110404;1261;18616;-49
2022/03/09 03:56:36;;;;;;;;;20.00;20.00;;;;;21.49;38.85;101613.02;110358;1262;18719;-48
2022/03/09 03:59:03;;;;;;;;;18.00;18.00;;;;;21.48;38.68;101618.98;110307;1262;18285;-48
2022/03/09 04:01:31;;;;;;;;;20.00;18.00;;;;;21.47;38.72;101618.98;110344;1262;19006;-48
2022/03/09 04:03:58;;;;;;;;;21.33;18.67;;;;;21.48;38.79;101619.11;110367;1262;21002;-48
2022/03/09 04:06:25;;;;;;;;;26.67;22.33;;;;;21.48;38.59;101622.03;110346;1262;18326;-49
2022/03/09 04:08:56;;;;;;;;;17.00;17.00;;;;;21.47;38.63;101622.63;110379;1261;18660;-49
2022/03/09 04:11:23;;;;;;;;;17.00;16.00;;;;;21.47;38.57;101626.30;110408;1262;20464;-48
2022/03/09 04:13:51;;;;;;;;;20.00;18.00;;;;;21.46;38.85;101628.16;110408;1262;18301;-49
2022/03/09 04:16:18;;;;;;;;;19.33;17.33;;;;;21.47;38.68;101626.14;110384;1261;18856;-49
2022/03/09 04:18:45;;;;;;;;;16.33;14.67;;;;;21.45;38.62;101622.63;110350;1261;18787;-50
2022/03/09 04:21:12;;;;;;;;;21.00;20.00;;;;;21.46;38.67;101620.95;110356;1262;23449;-48
2022/03/09 04:23:40;;;;;;;;;21.00;20.00;;;;;21.45;38.86;101621.80;110367;1262;18773;-48
2022/03/09 04:26:07;;;;;;;;;20.00;18.33;;;;;21.45;38.76;101622.89;110379;1261;18883;-48
2022/03/09 04:28:34;;;;;;;;;20.33;19.33;;;;;21.44;38.87;101619.29;110404;1262;21576;-47
2022/03/09 04:31:01;;;;;;;;;20.67;17.00;;;;;21.44;38.71;101618.18;110376;1262;18837;-50
2022/03/09 04:33:29;;;;;;;;;20.00;15.00;;;;;21.43;38.64;101621.80;110349;1261;22001;-49
2022/03/09 04:35:56;;;;;;;;;15.00;14.67;;;;;21.43;38.64;101623.48;110355;1261;18246;-48
2022/03/09 04:38:23;;;;;;;;;19.67;17.00;;;;;21.43;38.73;101627.46;110403;1262;18770;-49
2022/03/09 04:40:50;;;;;;;;;18.00;16.00;;;;;21.43;38.65;101632.10;110421;1262;18797;-48
2022/03/09 04:43:18;;;;;;;;;20.33;16.33;;;;;21.43;38.73;101641.24;110383;1262;20070;-48
2022/03/09 04:45:45;;;;;;;;;17.33;14.67;;;;;21.43;38.71;101641.81;110391;1262;18720;-50
2022/03/09 04:48:12;;;;;;;;;22.67;20.00;;;;;21.43;38.81;101641.64;110432;1261;18709;-50
2022/03/09 04:50:40;;;;;;;;;20.67;17.33;;;;;21.43;38.80;101643.66;110329;1261;18497;-48
2022/03/09 04:53:07;;;;;;;;;20.00;17.00;;;;;21.43;38.55;101636.95;110384;1261;18753;-47
2022/03/09 04:55:34;;;;;;;;;16.67;16.33;;;;;21.44;38.64;101637.56;110382;1262;20113;-49
2022/03/09 04:58:01;;;;;;;;;21.00;17.67;;;;;21.44;38.53;101636.27;110342;1262;18290;-48
2022/03/09 05:00:29;;;;;;;;;22.33;17.33;;;;;21.43;38.61;101634.66;110357;1261;18784;-48
2022/03/09 05:02:56;;;;;;;;;18.00;17.00;;;;;21.43;38.62;101630.53;110365;1262;19505;-48
2022/03/09 05:05:24;;;;;;;;;17.00;17.00;;;;;21.43;38.52;101631.63;110358;1261;18237;-47
2022/03/09 05:07:51;;;;;;;;;21.33;18.00;;;;;21.43;38.63;101628.48;110385;1261;22200;-49
2022/03/09 05:10:18;;;;;;;;;19.33;17.00;;;;;21.43;38.67;101630.15;110327;1262;19132;-47
2022/03/09 05:12:45;;;;;;;;;18.00;17.00;;;;;21.44;38.50;101631.52;110383;1261;18172;-49
2022/03/09 05:15:12;;;;;;;;;16.00;16.00;;;;;21.44;38.49;101629.68;110353;1262;19152;-49
2022/03/09 05:17:40;;;;;;;;;17.00;16.00;;;;;21.44;38.44;101627.33;110350;1262;18716;-47
2022/03/09 05:20:07;;;;;;;;;21.67;16.33;;;;;21.44;38.65;101627.56;110362;1262;18222;-48
2022/03/09 05:22:34;;;;;;;;;19.67;18.67;;;;;21.43;38.49;101629.27;110367;1262;18639;-49
2022/03/09 05:25:01;;;;;;;;;18.00;15.33;;;;;21.43;38.37;101633.05;110388;1262;21150;-48
2022/03/09 05:27:29;;;;;;;;;20.67;18.00;;;;;21.42;38.57;101634.05;110378;1262;21905;-49
2022/03/09 05:29:56;;;;;;;;;19.33;16.00;;;;;21.43;38.46;101639.09;110395;1262;18831;-49
2022/03/09 05:32:23;;;;;;;;;16.33;14.67;;;;;21.42;38.61;101638.09;110357;1262;19261;-50
2022/03/09 05:34:51;;;;;;;;;17.00;13.00;;;;;21.41;38.54;101640.89;110404;1261;18240;-51
2022/03/09 05:37:18;;;;;;;;;18.00;15.33;;;;;21.43;38.43;101638.71;110367;1262;18732;-49
2022/03/09 05:39:45;;;;;;;;;17.67;15.33;;;;;21.42;38.47;101643.59;110355;1260;22664;-48
2022/03/09 05:42:12;;;;;;;;;17.33;14.67;;;;;21.42;38.54;101649.55;110385;1262;18198;-50
2022/03/09 05:44:40;;;;;;;;;16.00;14.00;;;;;21.43;38.55;101653.48;110355;1262;18771;-49
2022/03/09 05:47:07;;;;;;;;;17.33;15.67;;;;;21.42;38.63;101648.46;110373;1262;18761;-49
2022/03/09 05:49:35;;;;;;;;;14.00;13.33;;;;;21.42;38.50;101645.71;110399;1262;18237;-48
2022/03/09 05:52:02;;;;;;;;;17.00;16.00;;;;;21.42;38.55;101644.98;110357;1262;19034;-50
2022/03/09 05:54:29;;;;;;;;;17.00;15.33;;;;;21.42;38.56;101642.63;110369;1262;20182;-50
2022/03/09 05:56:56;;;;;;;;;19.33;17.67;;;;;21.43;38.50;101646.66;110418;1262;18551;-51
2022/03/09 05:59:23;;;;;;;;;17.50;16.00;;;;;21.45;38.49;101647.21;110322;1262;18710;-50
2022/03/09 06:01:51;;;;;;;;;16.00;15.00;;;;;21.48;38.57;101643.80;110415;1261;27415;-50
2022/03/09 06:04:18;;;;;;;;;14.00;14.00;;;;;21.52;38.45;101648.09;110332;1261;18241;-51
2022/03/09 06:06:45;;;;;;;;;28.67;27.33;;;;;21.49;38.25;101659.92;110322;1261;18987;-49
2022/03/09 06:09:12;;;;;;;;;37.00;35.00;;;;;20.92;34.63;101656.62;110290;1262;19299;-50
2022/03/09 06:11:41;;;;;;;;;28.67;23.00;;;;;20.34;33.56;101653.93;110331;1262;18488;-49
2022/03/09 06:14:08;;;;;;;;;28.00;27.00;;;;;20.57;35.17;101655.30;110402;1262;18697;-50
2022/03/09 06:16:36;;;;;;;;;24.67;23.00;;;;;20.88;34.66;101663.95;110371;1261;18690;-49
2022/03/09 06:19:03;;;;;;;;;27.00;24.00;;;;;21.07;34.74;101666.73;110361;1262;18216;-48
2022/03/09 06:21:30;;;;;;;;;28.00;24.00;;;;;21.21;34.27;101665.48;110371;1262;18556;-52
2022/03/09 06:23:57;;;;;;;;;26.33;22.00;;;;;21.36;34.02;101673.23;110326;1262;20085;-51
2022/03/09 06:26:25;;;;;;;;;22.00;21.00;;;;;21.45;34.07;101682.10;110421;1262;18520;-50
2022/03/09 06:28:52;;;;;;;;;22.33;21.00;;;;;21.54;34.12;101687.79;110471;1262;19118;-48
2022/03/09 06:31:19;;;;;;;;;18.67;18.00;;;;;21.61;34.40;101691.96;110390;1262;19000;-51
2022/03/09 06:33:46;;;;;;;;;25.00;20.00;;;;;21.67;34.81;101694.98;110275;1261;28264;-50
2022/03/09 06:36:13;;;;;;;;;24.67;20.33;;;;;21.72;35.08;101686.96;110401;1261;18723;-51
2022/03/09 06:38:41;;;;;;;;;24.50;20.00;;;;;21.77;35.44;101684.95;110433;1261;18752;-51
2022/03/09 06:41:08;;;;;;;;;23.00;21.00;;;;;21.79;35.58;101683.32;110408;1261;19912;-52
2022/03/09 06:43:35;;;;;;;;;18.67;17.33;;;;;21.83;36.03;101684.92;110401;1262;18639;-51
2022/03/09 06:46:03;;;;;;;;;22.33;21.00;;;;;21.89;36.45;101683.52;110405;1261;18753;-49
2022/03/09 06:48:31;;;;;;;;;21.00;18.00;;;;;21.97;36.76;101677.97;110369;1261;18255;-51
2022/03/09 06:50:58;;;;;;;;;22.33;19.00;;;;;22.01;36.96;101682.56;110358;1262;18865;-51
2022/03/09 06:53:25;;;;;;;;;19.50;18.00;;;;;22.07;37.13;101686.88;110353;1262;21664;-50
2022/03/09 06:55:53;;;;;;;;;20.00;18.50;;;;;22.06;37.40;101686.95;110411;1262;18225;-50
2022/03/09 06:58:20;;;;;;;;;20.33;18.00;;;;;22.13;37.95;101693.17;110385;1262;18819;-48
2022/03/09 07:00:47;;;;;;;;;20.33;18.67;;;;;22.20;37.71;101694.81;110417;1261;19009;-49
2022/03/09 07:03:14;;;;;;;;;16.50;14.50;;;;;22.22;37.56;101697.06;110380;1261;18585;-49
2022/03/09 07:05:41;;;;;;;;;19.33;18.00;;;;;22.21;37.45;101694.16;110367;1262;21765;-51
2022/03/09 07:08:09;;;;;;;;;19.00;15.00;;;;;22.19;37.69;101694.95;110339;1262;18703;-49
2022/03/09 07:10:36;;;;;;;;;21.67;19.00;;;;;22.17;37.77;101694.39;110318;1262;18264;-49
2022/03/09 07:13:03;;;;;;;;;18.67;17.00;;;;;22.17;37.78;101695.69;110324;1262;19200;-50
2022/03/09 07:15:30;;;;;;;;;16.50;16.50;;;;;22.22;37.82;101696.81;110393;1262;22090;-49
2022/03/09 07:17:58;;;;;;;;;17.67;16.67;;;;;22.29;37.79;101696.92;110252;1262;18214;-51
2022/03/09 07:20:25;;;;;;;;;19.67;17.00;;;;;22.34;38.01;101700.27;110404;1262;19225;-53
2022/03/09 07:22:53;;;;;;;;;15.33;14.00;;;;;22.38;38.26;101700.12;110306;1261;18754;-53
2022/03/09 07:25:20;;;;;;;;;18.00;15.00;;;;;22.42;38.18;101704.34;110415;1261;18445;-51
2022/03/09 07:27:49;;;;;;;;;20.00;19.00;;;;;22.44;38.31;101697.23;110409;1261;18734;-50
2022/03/09 07:30:16;;;;;;;;;14.00;13.67;;;;;22.44;38.20;101697.84;110399;1262;20059;-51
2022/03/09 07:32:43;;;;;;;;;18.00;15.00;;;;;22.43;38.34;101698.57;110438;1261;18193;-50
2022/03/09 07:35:10;;;;;;;;;17.67;16.67;;;;;22.44;38.39;101701.70;110440;1261;18735;-47
2022/03/09 07:37:38;;;;;;;;;17.50;16.00;;;;;22.47;38.43;101697.90;110454;1261;19466;-51
2022/03/09 07:40:05;;;;;;;;;16.33;15.00;;;;;22.50;38.09;101695.03;110431;1261;23100;-50
2022/03/09 07:42:32;;;;;;;;;19.00;19.00;;;;;22.52;38.11;101694.11;110407;1261;18957;-49
2022/03/09 07:45:00;;;;;;;;;18.33;17.00;;;;;22.50;38.12;101692.10;110281;1261;18716;-50
2022/03/09 07:47:27;;;;;;;;;14.33;13.00;;;;;22.51;38.12;101696.37;110351;1261;19336;-49
2022/03/09 07:49:54;;;;;;;;;18.00;15.00;;;;;22.56;38.02;101695.70;110430;1261;18794;-50
2022/03/09 07:52:21;;;;;;;;;17.67;17.33;;;;;22.57;37.96;101696.28;110424;1262;18783;-51
2022/03/09 07:54:49;;;;;;;;;18.00;17.00;;;;;22.54;38.11;101692.59;110434;1261;20072;-49
2022/03/09 07:57:16;;;;;;;;;18.00;16.33;;;;;22.47;37.83;101691.89;110389;1261;19411;-49
2022/03/09 07:59:43;;;;;;;;;18.67;17.00;;;;;22.51;37.76;101700.64;110424;1261;19491;-51
2022/03/09 08:02:10;;;;;;;;;26.00;22.50;;;;;22.51;37.55;101707.71;110420;1261;22129;-50
2022/03/09 08:04:38;;;;;;;;;23.00;22.00;;;;;22.34;36.51;101712.41;110424;1261;18888;-51
2022/03/09 08:07:05;;;;;;;;;25.00;23.33;;;;;22.19;36.66;101717.72;110392;1262;19988;-50
2022/03/09 08:09:32;;;;;;;;;34.67;31.67;;;;;22.16;36.32;101720.73;110396;1261;18201;-51
2022/03/09 08:11:59;;;;;;;;;31.67;29.67;;;;;22.17;36.01;101720.09;110447;1262;20559;-49
2022/03/09 08:14:27;;;;;;;;;31.67;29.00;;;;;22.17;35.73;101724.90;110438;1261;20760;-50
2022/03/09 08:16:54;;;;;;;;;28.67;25.67;;;;;22.12;35.14;101724.77;110409;1261;18355;-51
2022/03/09 08:19:21;;;;;;;;;29.00;27.67;;;;;22.09;34.50;101726.20;110386;1261;18667;-50
2022/03/09 08:21:48;;;;;;;;;35.67;30.67;;;;;22.02;33.23;101721.44;110368;1261;22752;-50
2022/03/09 08:24:16;;;;;;;;;34.67;30.00;;;;;21.97;32.89;101722.36;110374;1261;18252;-53
2022/03/09 08:26:43;;;;;;;;;30.33;29.33;;;;;21.90;32.39;101728.98;110405;1262;18770;-49
2022/03/09 08:29:10;;;;;;;;;39.33;32.33;;;;;21.81;31.62;101724.95;110394;1262;19061;-51
2022/03/09 08:31:38;;;;;;;;;33.00;29.67;;;;;21.74;30.61;101726.94;110442;1261;18525;-51
2022/03/09 08:34:05;;;;;;;;;36.00;32.33;;;;;21.70;30.94;101722.83;110431;1262;18777;-50
2022/03/09 08:36:32;;;;;;;;;36.67;30.00;;;;;21.71;30.70;101722.33;110429;1261;18910;-51
2022/03/09 08:39:01;;;;;;;;;51.00;39.00;;;;;21.70;30.56;101723.92;110440;1261;20621;-51
2022/03/09 08:41:29;;;;;;;;;38.00;33.67;;;;;21.62;30.18;101725.16;110439;1262;18692;-51
2022/03/09 08:43:57;;;;;;;;;39.33;37.33;;;;;21.57;29.96;101726.35;110429;1261;18752;-49
2022/03/09 08:46:24;;;;;;;;;32.50;29.50;;;;;21.56;30.07;101726.65;110413;1262;19751;-50
2022/03/09 08:48:51;;;;;;;;;38.00;33.33;;;;;21.54;29.96;101727.25;110439;1261;18705;-49
2022/03/09 08:51:21;;;;;;;;;31.67;27.33;;;;;21.50;29.54;101727.65;110320;1261;18708;-48
2022/03/09 08:53:48;;;;;;;;;39.50;32.50;;;;;21.47;29.98;101727.36;110425;1261;19514;-51
2022/03/09 08:56:15;;;;;;;;;36.67;31.00;;;;;21.48;30.05;101722.43;110377;1261;19207;-51
2022/03/09 08:58:43;;;;;;;;;31.67;27.00;;;;;21.46;30.00;101722.38;110350;1262;18759;-49
2022/03/09 09:01:10;;;;;;;;;31.00;30.00;;;;;21.48;30.43;101726.54;110361;1261;18860;-50
2022/03/09 09:03:37;;;;;;;;;32.50;31.50;;;;;21.39;30.04;101729.43;110186;1261;20298;-50
2022/03/09 09:06:04;;;;;;;;;39.67;32.67;;;;;21.30;30.34;101729.30;110272;1260;18968;-48
2022/03/09 09:08:32;;;;;;;;;31.67;28.67;;;;;21.08;31.08;101728.39;110386;1261;18580;-52
2022/03/09 09:10:59;;;;;;;;;43.33;36.67;;;;;21.14;31.23;101732.06;110418;1261;18842;-52
2022/03/09 09:13:26;;;;;;;;;45.50;40.00;;;;;21.10;30.32;101736.45;110365;1262;18714;-49
2022/03/09 09:15:53;;;;;;;;;54.50;44.00;;;;;20.65;29.34;101739.51;110228;1261;18247;-48
2022/03/09 09:18:21;;;;;;;;;44.67;41.33;;;;;20.16;29.85;101742.48;110159;1261;18793;-48
2022/03/09 09:20:48;;;;;;;;;59.33;44.67;;;;;20.05;29.53;101744.03;110356;1261;20063;-50
2022/03/09 09:23:15;;;;;;;;;49.33;41.33;;;;;19.59;29.39;101747.34;110282;1261;18379;-52
2022/03/09 09:25:42;;;;;;;;;53.67;42.00;;;;;19.57;29.65;101747.02;110450;1261;18705;-51
2022/03/09 09:28:09;;;;;;;;;44.00;38.67;;;;;20.13;30.01;101745.13;110278;1262;18883;-49
2022/03/09 09:30:37;;;;;;;;;44.00;38.50;;;;;20.70;30.00;101749.83;110420;1261;18222;-50
2022/03/09 09:33:04;;;;;;;;;42.00;39.00;;;;;21.07;30.30;101755.24;110439;1261;18772;-49
2022/03/09 09:35:31;;;;;;;;;46.00;36.00;;;;;21.30;30.32;101749.65;110400;1261;18704;-50
2022/03/09 09:38:06;;;;;;;;;39.33;35.33;;;;;21.46;30.47;101758.17;110417;1261;20505;-51
2022/03/09 09:40:34;;;;;;;;;36.00;33.33;;;;;21.53;30.69;101755.36;110446;1261;21963;-51
2022/03/09 09:43:07;;;;;;;;;45.00;39.00;;;;;21.51;30.41;101756.08;110428;1262;18659;-49
2022/03/09 09:45:35;;;;;;;;;44.00;40.00;;;;;21.41;30.08;101756.91;110066;1262;18369;-49
2022/03/09 09:48:02;;;;;;;;;50.67;41.00;;;;;21.31;30.24;101756.31;109857;1262;18724;-50
2022/03/09 09:50:29;;;;;;;;;40.00;36.00;;;;;21.24;30.14;101753.23;110422;1262;18786;-50
2022/03/09 09:52:56;;;;;;;;;44.33;40.33;;;;;21.09;30.17;101755.09;110497;1262;21573;-50
2022/03/09 09:55:24;;;;;;;;;42.00;36.00;;;;;21.01;30.21;101748.58;110454;1261;20500;-48
2022/03/09 09:57:52;;;;;;;;;42.00;37.67;;;;;21.11;30.33;101754.48;110280;1261;18883;-48
2022/03/09 10:00:19;;;;;;;;;46.00;40.00;;;;;21.02;29.70;101756.52;110435;1261;19233;-50
2022/03/09 10:02:47;;;;;;;;;44.33;37.00;;;;;21.01;29.95;101757.46;110407;1262;19303;-48
2022/03/09 10:05:15;;;;;;;;;38.67;36.00;;;;;21.03;29.97;101753.30;110481;1262;22666;-49
2022/03/09 10:07:42;;;;;;;;;41.00;37.00;;;;;21.03;30.36;101756.02;110370;1262;21932;-51
2022/03/09 10:10:10;;;;;;;;;44.33;36.00;;;;;21.14;30.59;101757.26;110333;1262;18988;-49
2022/03/09 10:12:37;;;;;;;;;37.00;33.50;;;;;21.23;30.50;101763.85;110292;1262;18637;-50
2022/03/09 10:15:05;;;;;;;;;47.33;42.67;;;;;21.22;30.32;101763.33;110390;1261;18541;-50
2022/03/09 10:17:34;;;;;;;;;51.00;41.33;;;;;20.92;29.64;101763.11;110358;1261;18810;-50
2022/03/09 10:20:02;;;;;;;;;44.67;40.00;;;;;20.51;29.19;101757.77;110487;1262;19567;-50
2022/03/09 10:22:29;;;;;;;;;38.00;33.67;;;;;20.50;29.89;101760.89;110369;1261;18255;-51
2022/03/09 10:24:56;;;;;;;;;43.33;33.67;;;;;20.77;30.08;101762.27;110192;1262;18701;-49
2022/03/09 10:27:23;;;;;;;;;40.00;33.67;;;;;21.00;30.47;101764.33;110438;1262;21691;-49
2022/03/09 10:29:50;;;;;;;;;33.33;31.67;;;;;21.18;30.66;101761.62;110451;1261;18264;-50
2022/03/09 10:32:19;;;;;;;;;43.50;37.00;;;;;21.26;30.65;101756.61;110443;1262;21928;-48
2022/03/09 10:34:47;;;;;;;;;42.67;35.00;;;;;21.23;30.43;101751.68;110443;1261;18957;-48
2022/03/09 10:37:14;;;;;;;;;36.00;29.50;;;;;21.23;30.98;101748.41;110464;1262;18483;-47
2022/03/09 10:39:42;;;;;;;;;40.67;35.67;;;;;21.31;31.28;101740.82;110392;1261;19015;-47
2022/03/09 10:42:10;;;;;;;;;38.50;34.50;;;;;21.44;31.57;101742.46;110420;1261;18932;-52
2022/03/09 10:44:37;;;;;;;;;35.67;32.00;;;;;21.53;31.75;101737.30;110410;1262;18296;-50
2022/03/09 10:47:04;;;;;;;;;34.00;31.00;;;;;21.61;32.09;101739.55;110488;1261;18822;-50
2022/03/09 10:49:31;;;;;;;;;33.00;28.33;;;;;21.57;32.30;101739.58;110414;1261;18944;-48
2022/03/09 10:51:59;;;;;;;;;37.33;33.00;;;;;21.52;31.98;101742.67;110450;1261;18393;-50
2022/03/09 10:54:26;;;;;;;;;34.00;30.67;;;;;21.36;31.07;101748.72;110431;1261;18813;-49
2022/03/09 10:56:53;;;;;;;;;43.67;37.00;;;;;21.23;30.55;101750.55;110428;1261;18753;-49
2022/03/09 10:59:20;;;;;;;;;39.00;32.00;;;;;21.14;30.23;101750.78;110402;1261;18261;-50
2022/03/09 11:01:47;;;;;;;;;37.33;33.33;;;;;21.07;30.03;101753.46;110478;1261;19101;-50
2022/03/09 11:04:15;;;;;;;;;41.33;31.00;;;;;21.02;29.58;101759.18;110390;1262;21785;-48